createdAt,value
2023-01-30T00:01:07.262Z,19.35
2023-01-30T00:03:35.307Z,19.88
2023-01-30T00:06:02.809Z,17.67
2023-01-30T00:08:30.006Z,19.55
2023-01-30T00:10:58.242Z,18.50
2023-01-30T00:13:25.477Z,18.80
2023-01-30T00:15:52.937Z,18.95
2023-01-30T00:18:20.005Z,18.25
2023-01-30T00:20:47.737Z,18.38
2023-01-30T00:23:15.136Z,19.85
2023-01-30T00:25:46.136Z,18.05
2023-01-30T00:28:13.567Z,19.05
2023-01-30T00:30:42.256Z,19.73
2023-01-30T00:33:16.387Z,18.48
2023-01-30T00:35:49.034Z,18.77
2023-01-30T00:38:17.191Z,19.88
2023-01-30T00:40:45.074Z,18.05
2023-01-30T00:43:33.512Z,17.85
2023-01-30T00:46:21.497Z,17.02
2023-01-30T00:49:07.401Z,18.17
2023-01-30T00:51:35.358Z,16.95
2023-01-30T00:54:02.542Z,17.52
2023-01-30T00:56:32.045Z,17.50
2023-01-30T00:58:59.350Z,18.42
2023-01-30T01:01:45.354Z,18.38
2023-01-30T01:04:13.719Z,17.13
2023-01-30T01:06:41.593Z,17.60
2023-01-30T01:09:08.822Z,18.08
2023-01-30T01:11:36.451Z,19.90
2023-01-30T01:14:05.743Z,17.80
2023-01-30T01:16:34.656Z,16.38
2023-01-30T01:19:02.391Z,15.38
2023-01-30T01:21:29.941Z,15.98
2023-01-30T01:24:00.555Z,14.95
2023-01-30T01:26:28.551Z,15.68
2023-01-30T01:28:57.696Z,13.82
2023-01-30T01:31:25.996Z,15.65
2023-01-30T01:33:56.971Z,13.50
2023-01-30T01:36:51.508Z,15.57
2023-01-30T01:39:13.536Z,13.77
2023-01-30T01:41:41.269Z,15.88
2023-01-30T01:44:11.283Z,15.55
2023-01-30T01:46:51.980Z,14.75
2023-01-30T01:49:30.920Z,14.68
2023-01-30T01:52:27.270Z,14.63
2023-01-30T01:54:59.847Z,28.33
2023-01-30T01:57:34.072Z,17.38
2023-01-30T02:00:13.001Z,16.13
2023-01-30T02:02:43.994Z,16.45
2023-01-30T02:05:14.238Z,16.38
2023-01-30T02:07:48.971Z,15.07
2023-01-30T02:10:23.727Z,15.82
2023-01-30T02:12:54.078Z,14.75
2023-01-30T02:15:22.431Z,15.52
2023-01-30T02:17:50.160Z,16.30
2023-01-30T02:20:36.219Z,15.80
2023-01-30T02:23:22.715Z,16.08
2023-01-30T02:26:26.272Z,17.20
2023-01-30T02:29:32.898Z,16.45
2023-01-30T02:32:20.985Z,16.70
2023-01-30T02:34:59.427Z,15.63
2023-01-30T02:37:45.301Z,14.35
2023-01-30T02:40:25.357Z,13.88
2023-01-30T02:43:05.028Z,15.02
2023-01-30T02:45:35.965Z,14.90
2023-01-30T02:48:07.912Z,15.82
2023-01-30T02:50:39.815Z,15.68
2023-01-30T02:53:09.074Z,15.68
2023-01-30T02:55:40.121Z,16.02
2023-01-30T02:58:09.036Z,15.65
2023-01-30T03:01:06.237Z,17.10
2023-01-30T03:04:07.298Z,14.55
2023-01-30T03:07:10.243Z,15.35
2023-01-30T03:10:17.979Z,16.60
2023-01-30T03:13:00.256Z,15.85
2023-01-30T03:15:38.942Z,15.10
2023-01-30T03:18:07.906Z,15.88
2023-01-30T03:20:42.091Z,17.42
2023-01-30T03:23:09.837Z,16.95
2023-01-30T03:25:40.053Z,16.92
2023-01-30T03:28:09.245Z,17.90
2023-01-30T03:30:37.219Z,17.13
2023-01-30T03:33:09.646Z,19.13
2023-01-30T03:35:40.354Z,18.95
2023-01-30T03:38:10.699Z,18.80
2023-01-30T03:40:38.259Z,19.17
2023-01-30T03:43:05.962Z,21.80
2023-01-30T03:45:36.168Z,20.13
2023-01-30T03:48:03.753Z,19.20
2023-01-30T03:50:31.679Z,19.25
2023-01-30T03:53:00.333Z,18.20
2023-01-30T03:55:27.652Z,18.45
2023-01-30T03:57:57.052Z,17.63
2023-01-30T04:00:27.252Z,19.73
2023-01-30T04:02:57.140Z,19.10
2023-01-30T04:05:25.216Z,19.77
2023-01-30T04:07:59.192Z,18.02
2023-01-30T04:10:27.297Z,18.35
2023-01-30T04:12:54.892Z,18.58
2023-01-30T04:15:24.078Z,18.33
2023-01-30T04:18:10.059Z,19.00
2023-01-30T04:20:58.772Z,17.90
2023-01-30T04:23:33.770Z,19.27
2023-01-30T04:26:01.021Z,18.38
2023-01-30T04:28:28.561Z,20.17
2023-01-30T04:30:55.826Z,19.23
2023-01-30T04:33:41.026Z,19.00
2023-01-30T04:36:10.707Z,18.10
2023-01-30T04:38:38.939Z,17.55
2023-01-30T04:41:08.038Z,18.50
2023-01-30T04:43:39.912Z,16.95
2023-01-30T04:46:46.265Z,17.77
2023-01-30T04:49:15.129Z,18.17
2023-01-30T04:51:43.538Z,16.70
2023-01-30T04:54:10.991Z,16.75
2023-01-30T04:56:42.649Z,18.60
2023-01-30T04:59:10.733Z,18.60
2023-01-30T05:01:42.936Z,17.10
2023-01-30T05:04:29.045Z,17.42
2023-01-30T05:06:56.204Z,16.67
2023-01-30T05:09:23.615Z,22.88
2023-01-30T05:11:50.738Z,18.75
2023-01-30T05:14:18.210Z,16.65
2023-01-30T05:16:45.362Z,18.55
2023-01-30T05:19:13.968Z,16.17
2023-01-30T05:21:41.335Z,16.42
2023-01-30T05:24:09.059Z,17.60
2023-01-30T05:26:36.219Z,18.40
2023-01-30T05:29:03.753Z,18.17
2023-01-30T05:31:30.938Z,18.02
2023-01-30T05:33:58.443Z,19.83
2023-01-30T05:36:25.574Z,17.35
2023-01-30T05:38:53.230Z,19.40
2023-01-30T05:41:20.600Z,31.58
2023-01-30T05:43:51.964Z,46.00
2023-01-30T05:46:20.001Z,19.67
2023-01-30T05:48:48.071Z,16.27
2023-01-30T05:51:26.108Z,17.58
2023-01-30T05:53:53.796Z,22.83
2023-01-30T05:56:21.142Z,15.45
2023-01-30T05:58:56.657Z,24.95
2023-01-30T06:01:26.099Z,21.25
2023-01-30T06:03:54.052Z,21.10
2023-01-30T06:06:22.741Z,19.17
2023-01-30T06:08:57.867Z,15.90
2023-01-30T06:11:26.807Z,16.58
2023-01-30T06:13:54.891Z,15.35
2023-01-30T06:16:23.125Z,15.93
2023-01-30T06:18:51.717Z,14.23
2023-01-30T06:21:19.160Z,16.45
2023-01-30T06:23:46.857Z,16.98
2023-01-30T06:26:15.831Z,20.20
2023-01-30T06:28:47.252Z,18.25
2023-01-30T06:31:17.143Z,17.13
2023-01-30T06:33:45.698Z,13.50
2023-01-30T06:36:14.385Z,17.20
2023-01-30T06:38:43.235Z,14.23
2023-01-30T06:41:11.719Z,15.85
2023-01-30T06:43:44.576Z,14.73
2023-01-30T06:46:12.206Z,13.75
2023-01-30T06:48:39.825Z,14.20
2023-01-30T06:51:08.191Z,20.98
2023-01-30T06:53:44.018Z,15.18
2023-01-30T06:56:12.947Z,21.67
2023-01-30T06:58:57.756Z,18.10
2023-01-30T07:01:28.949Z,21.40
2023-01-30T07:04:00.508Z,14.52
2023-01-30T07:06:30.812Z,14.13
2023-01-30T07:08:59.845Z,13.98
2023-01-30T07:11:28.957Z,14.10
2023-01-30T07:13:59.953Z,15.10
2023-01-30T07:16:30.305Z,17.25
2023-01-30T07:18:59.316Z,15.88
2023-01-30T07:21:29.089Z,13.50
2023-01-30T07:23:56.878Z,12.82
2023-01-30T07:26:25.080Z,14.80
2023-01-30T07:28:52.576Z,14.52
2023-01-30T07:31:19.767Z,13.95
2023-01-30T07:33:47.281Z,15.18
2023-01-30T07:36:20.262Z,13.80
2023-01-30T07:38:50.865Z,13.38
2023-01-30T07:41:24.441Z,13.13
2023-01-30T07:43:56.179Z,15.43
2023-01-30T07:46:26.272Z,14.80
2023-01-30T07:49:23.079Z,14.80
2023-01-30T07:51:54.995Z,15.10
2023-01-30T07:54:28.647Z,17.23
2023-01-30T07:57:09.182Z,17.80
2023-01-30T07:59:38.273Z,16.55
2023-01-30T08:02:09.456Z,16.80
2023-01-30T08:04:47.309Z,14.27
2023-01-30T08:07:26.589Z,17.42
2023-01-30T08:10:12.026Z,14.48
2023-01-30T08:12:41.082Z,11.57
2023-01-30T08:15:11.069Z,12.48
2023-01-30T08:17:40.323Z,14.43
2023-01-30T08:20:09.594Z,13.45
2023-01-30T08:22:37.517Z,15.00
2023-01-30T08:25:08.649Z,17.90
2023-01-30T08:30:35.477Z,15.48
2023-01-30T08:33:06.137Z,11.60
2023-01-30T08:35:47.187Z,12.25
2023-01-30T08:38:14.530Z,11.05
2023-01-30T08:40:48.680Z,19.08
2023-01-30T08:43:28.216Z,13.93
2023-01-30T08:46:04.259Z,14.85
2023-01-30T08:48:49.846Z,13.00
2023-01-30T08:51:19.005Z,12.05
2023-01-30T08:53:50.273Z,13.25
2023-01-30T08:56:39.152Z,12.60
2023-01-30T08:59:11.579Z,13.20
2023-01-30T09:01:45.469Z,14.00
2023-01-30T09:04:13.042Z,16.27
2023-01-30T09:06:41.336Z,14.68
2023-01-30T09:09:08.941Z,14.30
2023-01-30T09:11:37.260Z,14.05
2023-01-30T09:14:13.407Z,14.60
2023-01-30T09:16:57.786Z,15.15
2023-01-30T09:19:28.436Z,13.77
2023-01-30T09:21:56.388Z,15.32
2023-01-30T09:24:26.779Z,14.23
2023-01-30T09:27:02.763Z,14.43
2023-01-30T09:29:37.179Z,13.98
2023-01-30T09:32:14.043Z,12.90
2023-01-30T09:34:52.834Z,12.50
2023-01-30T09:37:23.599Z,15.40
2023-01-30T09:40:11.799Z,13.00
2023-01-30T09:43:25.400Z,18.08
2023-01-30T09:46:43.955Z,14.80
2023-01-30T09:49:28.978Z,11.60
2023-01-30T09:52:18.853Z,11.27
2023-01-30T09:54:46.633Z,12.18
2023-01-30T09:57:22.557Z,13.02
2023-01-30T10:00:01.930Z,13.07
2023-01-30T10:02:58.870Z,11.70
2023-01-30T10:05:44.298Z,9.95
2023-01-30T10:08:36.296Z,11.02
2023-01-30T10:11:41.355Z,11.18
2023-01-30T10:14:43.969Z,10.80
2023-01-30T10:17:57.988Z,11.15
2023-01-30T10:20:53.904Z,11.30
2023-01-30T10:23:50.701Z,13.38
2023-01-30T10:26:32.578Z,12.00
2023-01-30T10:29:26.329Z,13.10
2023-01-30T10:32:10.238Z,14.25
2023-01-30T10:34:56.445Z,11.82
2023-01-30T10:37:42.505Z,17.38
2023-01-30T10:40:26.921Z,16.88
2023-01-30T10:43:26.071Z,17.70
2023-01-30T10:46:24.673Z,19.85
2023-01-30T10:49:16.720Z,23.55
2023-01-30T10:52:25.138Z,15.75
2023-01-30T10:55:10.909Z,12.80
2023-01-30T10:57:55.264Z,22.27
2023-01-30T11:01:07.881Z,15.57
2023-01-30T11:03:46.952Z,18.63
2023-01-30T11:06:19.123Z,13.93
2023-01-30T11:08:46.432Z,13.57
2023-01-30T11:11:27.557Z,14.32
2023-01-30T11:14:09.476Z,13.95
2023-01-30T11:16:53.399Z,16.63
2023-01-30T11:19:24.949Z,22.08
2023-01-30T11:22:00.094Z,22.70
2023-01-30T11:24:46.672Z,72.95
2023-01-30T11:27:33.659Z,28.80
2023-01-30T11:30:18.292Z,36.15
2023-01-30T11:32:53.460Z,17.00
2023-01-30T11:38:13.018Z,33.95
2023-01-30T11:40:43.831Z,16.27
2023-01-30T11:43:21.648Z,18.05
2023-01-30T11:45:51.573Z,18.92
2023-01-30T11:49:35.664Z,16.15
2023-01-30T11:51:58.635Z,16.08
2023-01-30T11:54:34.865Z,16.90
2023-01-30T11:57:11.407Z,16.85
2023-01-30T11:59:59.684Z,16.70
2023-01-30T12:02:48.711Z,19.65
2023-01-30T12:05:31.357Z,39.05
2023-01-30T12:08:57.052Z,24.48
2023-01-30T12:14:45.885Z,24.65
2023-01-30T12:20:26.850Z,39.97
2023-01-30T12:26:01.119Z,16.10
2023-01-30T12:29:01.707Z,14.55
2023-01-30T12:31:39.145Z,15.73
2023-01-30T12:34:09.822Z,18.83
2023-01-30T12:37:16.076Z,194.35
2023-01-30T12:39:43.972Z,19.30
2023-01-30T12:42:23.814Z,21.42
2023-01-30T12:45:11.953Z,18.23
2023-01-30T12:48:17.236Z,24.38
2023-01-30T12:50:58.787Z,21.00
2023-01-30T12:54:28.512Z,21.70
2023-01-30T12:57:12.924Z,21.33
2023-01-30T12:59:45.566Z,22.85
2023-01-30T13:02:44.531Z,23.58
2023-01-30T13:05:35.127Z,21.02
2023-01-30T13:08:33.725Z,25.48
2023-01-30T13:11:32.467Z,32.05
2023-01-30T13:14:06.228Z,42.90
2023-01-30T13:17:20.501Z,26.10
2023-01-30T13:20:22.535Z,41.75
2023-01-30T13:23:06.458Z,41.08
2023-01-30T13:25:43.958Z,40.65
2023-01-30T13:28:26.072Z,29.98
2023-01-30T13:31:00.319Z,26.20
2023-01-30T13:33:42.523Z,28.88
2023-01-30T13:36:37.309Z,28.58
2023-01-30T13:39:32.162Z,28.13
2023-01-30T13:42:26.679Z,24.27
2023-01-30T13:44:58.781Z,22.50
2023-01-30T13:47:26.325Z,32.03
2023-01-30T13:50:36.378Z,28.42
2023-01-30T13:54:03.693Z,23.58
2023-01-30T13:56:49.172Z,22.65
2023-01-30T14:00:12.810Z,33.10
2023-01-30T14:03:07.427Z,26.00
2023-01-30T14:06:15.474Z,31.02
2023-01-30T14:08:45.290Z,25.10
2023-01-30T14:11:35.432Z,26.88
2023-01-30T14:14:42.079Z,25.27
2023-01-30T14:17:16.243Z,21.27
2023-01-30T14:20:21.744Z,23.65
2023-01-30T14:23:06.497Z,27.88
2023-01-30T14:25:44.547Z,25.48
2023-01-30T14:28:20.488Z,32.33
2023-01-30T14:31:05.385Z,30.98
2023-01-30T14:33:47.860Z,28.73
2023-01-30T14:36:21.073Z,27.90
2023-01-30T14:39:17.337Z,25.83
2023-01-30T14:42:07.393Z,27.95
2023-01-30T14:45:00.138Z,28.58
2023-01-30T14:47:47.132Z,28.95
2023-01-30T14:50:24.795Z,53.60
2023-01-30T14:52:56.600Z,32.78
2023-01-30T14:55:29.823Z,35.28
2023-01-30T14:58:06.428Z,27.55
2023-01-30T15:00:38.505Z,30.98
2023-01-30T15:03:37.742Z,42.15
2023-01-30T15:06:38.743Z,47.88
2023-01-30T15:09:20.294Z,56.17
2023-01-30T15:12:03.844Z,43.35
2023-01-30T15:14:53.941Z,36.38
2023-01-30T15:17:52.721Z,47.50
2023-01-30T15:20:39.377Z,33.38
2023-01-30T15:23:44.606Z,38.60
2023-01-30T15:26:49.849Z,43.90
2023-01-30T15:29:58.310Z,42.78
2023-01-30T15:32:29.623Z,54.30
2023-01-30T15:35:24.761Z,43.80
2023-01-30T15:37:57.433Z,67.55
2023-01-30T15:40:29.916Z,44.47
2023-01-30T15:43:23.126Z,46.03
2023-01-30T15:46:23.892Z,46.30
2023-01-30T15:49:01.457Z,53.95
2023-01-30T15:51:42.703Z,47.88
2023-01-30T15:54:17.034Z,50.38
2023-01-30T15:59:45.603Z,44.53
2023-01-30T16:02:28.533Z,51.83
2023-01-30T16:05:18.432Z,51.33
2023-01-30T16:07:48.588Z,61.65
2023-01-30T16:10:22.278Z,57.88
2023-01-30T16:12:54.731Z,56.65
2023-01-30T16:16:02.609Z,55.33
2023-01-30T16:18:47.596Z,54.10
2023-01-30T16:21:41.318Z,60.45
2023-01-30T16:24:26.161Z,63.03
2023-01-30T16:27:31.606Z,212.88
2023-01-30T16:32:53.472Z,273.77
2023-01-30T16:35:34.045Z,329.33
2023-01-30T16:38:05.815Z,243.10
2023-01-30T16:41:27.248Z,193.15
2023-01-30T16:44:29.010Z,280.77
2023-01-30T16:47:42.714Z,93.82
2023-01-30T16:50:25.851Z,447.80
2023-01-30T16:55:27.773Z,537.53
2023-01-30T16:58:10.125Z,518.17
2023-01-30T17:00:41.202Z,252.35
2023-01-30T17:03:39.428Z,316.20
2023-01-30T17:06:27.380Z,147.88
2023-01-30T17:08:58.875Z,83.88
2023-01-30T17:14:38.206Z,116.78
2023-01-30T17:17:19.405Z,118.68
2023-01-30T17:20:05.599Z,122.53
2023-01-30T17:27:20.906Z,69.07
2023-01-30T17:30:48.735Z,72.68
2023-01-30T17:33:47.335Z,62.95
2023-01-30T17:36:41.228Z,65.70
2023-01-30T17:42:34.770Z,57.65
2023-01-30T17:47:23.181Z,80.05
2023-01-30T17:50:30.363Z,56.08
2023-01-30T18:01:46.375Z,107.10
2023-01-30T18:04:23.904Z,88.45
2023-01-30T18:11:04.145Z,91.30
2023-01-30T18:14:08.399Z,107.20
2023-01-30T18:20:34.873Z,125.35
2023-01-30T18:23:52.692Z,140.82
2023-01-30T18:31:17.840Z,134.52
2023-01-30T18:50:15.806Z,104.65
2023-01-30T18:53:43.268Z,61.13
2023-01-30T18:57:10.517Z,82.80
2023-01-30T19:00:10.228Z,81.90
2023-01-30T19:07:02.949Z,71.15
2023-01-30T19:10:53.411Z,69.07
2023-01-30T19:14:13.128Z,75.90
2023-01-30T19:17:21.143Z,75.68
2023-01-30T19:20:31.407Z,84.63
2023-01-30T19:27:19.738Z,75.38
2023-01-30T19:29:53.857Z,96.60
2023-01-30T19:32:34.163Z,150.07
2023-01-30T19:38:04.187Z,91.22
2023-01-30T19:41:13.592Z,144.00
2023-01-30T19:44:25.592Z,122.65
2023-01-30T19:47:27.119Z,106.82
2023-01-30T19:50:23.430Z,91.63
2023-01-30T19:53:10.251Z,76.00
2023-01-30T19:55:59.346Z,149.23
2023-01-30T19:58:48.204Z,162.32
2023-01-30T20:08:37.360Z,173.88
2023-01-30T20:11:37.420Z,544.28
2023-01-30T20:14:51.267Z,307.50
2023-01-30T20:18:14.987Z,747.33
2023-01-30T20:21:19.150Z,207.45
2023-01-30T20:24:28.538Z,148.60
2023-01-30T20:27:18.663Z,172.02
2023-01-30T20:30:20.312Z,542.92
2023-01-30T20:33:09.409Z,303.83
2023-01-30T20:36:47.834Z,152.20
2023-01-30T20:39:22.281Z,143.32
2023-01-30T20:41:56.177Z,166.90
2023-01-30T20:44:28.616Z,171.35
2023-01-30T20:46:57.889Z,187.98
2023-01-30T20:49:41.182Z,191.93
2023-01-30T20:52:24.538Z,182.30
2023-01-30T20:55:02.604Z,188.38
2023-01-30T20:57:38.705Z,199.50
2023-01-30T21:00:23.490Z,193.35
2023-01-30T21:03:51.122Z,173.73
2023-01-30T21:10:02.905Z,143.07
2023-01-30T21:12:41.175Z,156.20
2023-01-30T21:15:20.386Z,162.07
2023-01-30T21:17:57.912Z,157.98
2023-01-30T21:20:36.925Z,160.98
2023-01-30T21:23:35.682Z,172.65
2023-01-30T21:26:19.963Z,151.88
2023-01-30T21:29:03.174Z,169.98
2023-01-30T21:31:51.526Z,156.02
2023-01-30T21:34:51.790Z,149.02
2023-01-30T21:37:43.358Z,155.75
2023-01-30T21:44:00.438Z,144.57
2023-01-30T21:47:24.789Z,108.22
2023-01-30T21:50:08.383Z,76.82
2023-01-30T21:53:06.906Z,75.30
2023-01-30T21:56:14.109Z,80.68
2023-01-30T21:59:18.199Z,52.33
2023-01-30T22:02:27.868Z,51.85
2023-01-30T22:05:33.343Z,51.47
2023-01-30T22:08:21.592Z,50.67
2023-01-30T22:11:39.863Z,72.32
2023-01-30T22:14:18.791Z,48.85
2023-01-30T22:17:08.083Z,47.00
2023-01-30T22:19:43.482Z,49.33
2023-01-30T22:22:24.936Z,46.63
2023-01-30T22:24:57.187Z,48.75
2023-01-30T22:27:26.487Z,49.10
2023-01-30T22:30:00.233Z,47.53
2023-01-30T22:32:46.392Z,49.95
2023-01-30T22:35:22.174Z,47.70
2023-01-30T22:38:01.831Z,51.70
2023-01-30T22:40:30.038Z,49.75
2023-01-30T22:43:04.897Z,47.38
2023-01-30T22:46:07.133Z,48.67
2023-01-30T22:48:39.432Z,46.22
2023-01-30T22:51:11.474Z,49.63
2023-01-30T22:53:48.881Z,50.42
2023-01-30T22:56:18.495Z,47.75
2023-01-30T22:58:47.047Z,47.60
2023-01-30T23:01:21.499Z,49.78
2023-01-30T23:04:15.316Z,48.72
2023-01-30T23:06:43.670Z,52.83
2023-01-30T23:09:42.585Z,51.22
2023-01-30T23:12:31.598Z,53.22
2023-01-30T23:15:03.069Z,57.58
2023-01-30T23:17:50.623Z,50.60
2023-01-30T23:20:48.704Z,49.53
2023-01-30T23:23:17.460Z,49.83
2023-01-30T23:25:45.063Z,52.28
2023-01-30T23:28:12.533Z,50.47
2023-01-30T23:30:40.615Z,50.22
2023-01-30T23:33:08.065Z,51.20
2023-01-30T23:35:40.262Z,53.17
2023-01-30T23:38:16.417Z,55.97
2023-01-30T23:40:45.166Z,49.28
2023-01-30T23:43:17.852Z,52.15
2023-01-30T23:45:45.549Z,53.80
2023-01-30T23:48:12.882Z,50.08
2023-01-30T23:50:43.213Z,54.08
2023-01-30T23:53:15.180Z,58.20
2023-01-30T23:55:53.398Z,46.83
2023-01-30T23:58:22.230Z,50.42
